Winedale's Hourly Summary for Monday, May 14, 2018
Hour Temp
(f)
RH
(%)
Solar Rad.
(MJ/m2)
Rainfall
(in)
Wind
(mph)
5/14/2018 12:00 AM 74 80 0 0 3.31
5/14/2018 1:00 AM 74 87 0 0 3.39
5/14/2018 2:00 AM 74 88 0 0 3.08
5/14/2018 3:00 AM 74 90 0 0 3.69
5/14/2018 4:00 AM 74 90 0 0 3.7
5/14/2018 5:00 AM 73 91 0 0 1.4
5/14/2018 6:00 AM 73 93 0 0 0.54
5/14/2018 7:00 AM 72 94 0.04 0 0.05
5/14/2018 8:00 AM 73 93 0.26 0 0.82
5/14/2018 9:00 AM 76 81 0.89 0 4.23
5/14/2018 10:00 AM 79 67 1.83 0 5.8
5/14/2018 11:00 AM 80 66 1.64 0 5.77
5/14/2018 12:00 PM 81 57 1.75 0 4.4
5/14/2018 1:00 PM 85 51 2.78 0 4.48
5/14/2018 2:00 PM 86 45 2.43 0 4.91
5/14/2018 3:00 PM 87 45 2.1 0 4.42
5/14/2018 4:00 PM 87 45 1.45 0 4.02
5/14/2018 5:00 PM 87 45 0.72 0 3.13
5/14/2018 6:00 PM 86 48 0.53 0 2.24
5/14/2018 7:00 PM 85 51 0.42 0 3.05
5/14/2018 8:00 PM 83 56 0.27 0 3.65
5/14/2018 9:00 PM 80 61 0 0 3.6
5/14/2018 10:00 PM 77 63 0 0 2.73
5/14/2018 11:00 PM 75 67 0 0 3.68
Data Summary 78 68 17.11 0.00 3.34